Time;durP1;ratioP1;P1;durP2;ratioP2;P2;SDS_P1;SDS_P2;PMS_P1;PMS_P2;Temp;Humidity;BMP_temperature;BMP_pressure;BME280_temperature;BME280_humidity;BME280_pressure;Samples;Min_cycle;Max_cycle;Signal;HPM_P1;HPM_P2
2023/07/28 00:00:56;;;;;;;19.25;15.40;;;;;;;;;;4971586;28;20027;-62
2023/07/28 00:03:22;;;;;;;19.85;16.20;;;;;;;;;;4970229;28;20037;-62
2023/07/28 00:05:47;;;;;;;19.20;15.57;;;;;;;;;;4969998;28;20074;-62
2023/07/28 00:08:13;;;;;;;20.77;16.00;;;;;;;;;;4970398;28;20022;-62
2023/07/28 00:10:43;;;;;;;21.83;15.52;;;;;;;;;;4970577;28;20031;-62
2023/07/28 00:13:09;;;;;;;23.85;15.93;;;;;;;;;;4970932;28;20042;-60
2023/07/28 00:15:35;;;;;;;20.13;14.27;;;;;;;;;;4970069;28;20439;-61
2023/07/28 00:18:01;;;;;;;20.45;15.75;;;;;;;;;;4970837;28;20027;-60
2023/07/28 00:20:28;;;;;;;20.42;15.52;;;;;;;;;;4970652;28;20101;-61
2023/07/28 00:22:54;;;;;;;20.08;16.10;;;;;;;;;;4970757;28;20522;-61
2023/07/28 00:25:20;;;;;;;19.88;15.82;;;;;;;;;;4981102;22;20043;-55
2023/07/28 00:27:46;;;;;;;20.77;16.50;;;;;;;;;;4994285;28;20025;-57
2023/07/28 00:30:12;;;;;;;20.05;15.80;;;;;;;;;;5051975;28;20023;-55
2023/07/28 00:32:38;;;;;;;19.65;15.77;;;;;;;;;;5051907;28;20037;-57
2023/07/28 00:35:04;;;;;;;20.60;15.85;;;;;;;;;;5051132;28;20136;-57
2023/07/28 00:37:30;;;;;;;19.13;15.50;;;;;;;;;;5051876;28;20427;-53
2023/07/28 00:39:56;;;;;;;20.05;15.88;;;;;;;;;;5051937;28;20021;-54
2023/07/28 00:42:22;;;;;;;19.50;15.63;;;;;;;;;;5051711;28;20036;-57
2023/07/28 00:44:48;;;;;;;18.92;16.05;;;;;;;;;;5051374;28;20017;-57
2023/07/28 00:47:15;;;;;;;19.40;15.63;;;;;;;;;;5051956;28;20098;-54
2023/07/28 00:49:41;;;;;;;20.13;15.73;;;;;;;;;;5051810;28;20049;-57
2023/07/28 00:52:08;;;;;;;18.92;15.77;;;;;;;;;;5051543;28;20120;-56
2023/07/28 00:54:34;;;;;;;19.48;15.73;;;;;;;;;;5050766;28;20025;-57
2023/07/28 00:57:00;;;;;;;17.95;13.40;;;;;;;;;;5051567;28;20044;-58
2023/07/28 00:59:27;;;;;;;19.55;15.77;;;;;;;;;;5051666;28;20033;-55
2023/07/28 01:01:53;;;;;;;18.35;14.98;;;;;;;;;;5051569;28;20033;-54
2023/07/28 01:04:19;;;;;;;19.42;15.02;;;;;;;;;;5049550;28;20021;-57
2023/07/28 01:07:01;;;;;;;18.00;14.98;;;;;;;;;;5050661;28;20028;-55
2023/07/28 01:09:32;;;;;;;20.73;15.25;;;;;;;;;;5051797;28;20044;-57
2023/07/28 01:12:00;;;;;;;18.25;14.30;;;;;;;;;;5051889;28;20029;-57
2023/07/28 01:14:26;;;;;;;19.17;15.15;;;;;;;;;;5050702;28;20373;-57
2023/07/28 01:16:52;;;;;;;20.48;15.30;;;;;;;;;;5050031;28;20036;-58
2023/07/28 01:19:19;;;;;;;19.80;15.10;;;;;;;;;;5052194;28;20029;-54
2023/07/28 01:21:48;;;;;;;19.10;15.48;;;;;;;;;;5054283;28;20040;-58
2023/07/28 01:24:13;;;;;;;19.42;15.30;;;;;;;;;;5054547;28;20035;-55
2023/07/28 01:26:40;;;;;;;18.90;15.52;;;;;;;;;;5055496;28;20029;-58
2023/07/28 01:29:07;;;;;;;20.58;15.48;;;;;;;;;;5055478;28;20371;-56
2023/07/28 01:31:33;;;;;;;19.85;15.35;;;;;;;;;;5053923;28;20036;-54
2023/07/28 01:33:59;;;;;;;21.15;16.45;;;;;;;;;;5054645;28;20435;-56
2023/07/28 01:36:25;;;;;;;19.58;15.82;;;;;;;;;;5055081;28;20037;-55
2023/07/28 01:38:51;;;;;;;20.10;16.10;;;;;;;;;;5055291;28;20021;-55
2023/07/28 01:41:17;;;;;;;23.27;15.73;;;;;;;;;;5055044;28;20083;-55
2023/07/28 01:43:43;;;;;;;20.25;16.25;;;;;;;;;;5054974;28;20419;-54
2023/07/28 01:46:09;;;;;;;21.20;16.27;;;;;;;;;;5054358;28;20033;-57
2023/07/28 01:48:35;;;;;;;19.27;16.58;;;;;;;;;;5055155;28;20029;-56
2023/07/28 01:51:01;;;;;;;20.70;16.73;;;;;;;;;;5053780;28;20028;-56
2023/07/28 01:53:27;;;;;;;22.00;19.25;;;;;;;;;;5054822;28;20025;-57
2023/07/28 01:55:53;;;;;;;20.50;17.90;;;;;;;;;;5054000;28;20024;-58
2023/07/28 01:58:19;;;;;;;20.00;17.65;;;;;;;;;;5054653;28;20020;-56
2023/07/28 02:00:46;;;;;;;20.27;18.05;;;;;;;;;;5053380;28;20048;-57
2023/07/28 02:03:12;;;;;;;20.48;17.85;;;;;;;;;;5054657;28;20021;-58
2023/07/28 02:05:38;;;;;;;21.05;18.75;;;;;;;;;;5053818;28;20362;-57
2023/07/28 02:08:04;;;;;;;22.02;18.77;;;;;;;;;;5054680;28;20032;-55
2023/07/28 02:10:30;;;;;;;24.40;21.80;;;;;;;;;;5054701;28;20060;-57
2023/07/28 02:12:56;;;;;;;23.23;20.83;;;;;;;;;;5054427;28;20080;-54
2023/07/28 02:15:22;;;;;;;24.27;21.70;;;;;;;;;;5053661;28;20448;-58
2023/07/28 02:17:49;;;;;;;24.30;21.90;;;;;;;;;;5054404;28;20052;-57
2023/07/28 02:20:15;;;;;;;23.33;20.88;;;;;;;;;;5054435;28;20032;-54
2023/07/28 02:22:41;;;;;;;23.98;21.50;;;;;;;;;;5054320;28;20088;-56
2023/07/28 02:25:08;;;;;;;24.02;21.58;;;;;;;;;;5053381;28;20124;-58
2023/07/28 02:27:34;;;;;;;22.75;20.45;;;;;;;;;;5054391;28;20029;-58
2023/07/28 02:30:00;;;;;;;22.17;19.88;;;;;;;;;;5053660;28;20401;-52
2023/07/28 02:32:26;;;;;;;22.52;20.20;;;;;;;;;;5054172;28;20116;-55
2023/07/28 02:34:52;;;;;;;21.65;19.35;;;;;;;;;;5053375;28;20051;-58
2023/07/28 02:37:18;;;;;;;22.60;20.30;;;;;;;;;;5054118;28;20504;-54
2023/07/28 02:39:44;;;;;;;22.88;20.55;;;;;;;;;;5054039;28;20021;-56
2023/07/28 02:42:10;;;;;;;21.60;19.40;;;;;;;;;;5053967;28;20028;-58
2023/07/28 02:44:36;;;;;;;23.88;19.67;;;;;;;;;;5051866;28;20029;-57
2023/07/28 02:47:02;;;;;;;22.15;19.80;;;;;;;;;;5052703;28;20032;-57
2023/07/28 02:49:28;;;;;;;22.63;20.23;;;;;;;;;;5053822;28;20174;-56
2023/07/28 02:51:54;;;;;;;20.85;18.65;;;;;;;;;;5053820;28;20033;-58
2023/07/28 02:54:23;;;;;;;21.42;19.15;;;;;;;;;;5052970;28;20021;-57
2023/07/28 02:56:49;;;;;;;21.65;18.35;;;;;;;;;;5053667;28;20017;-57
2023/07/28 02:59:15;;;;;;;21.48;17.60;;;;;;;;;;5053617;28;20397;-57
2023/07/28 03:01:41;;;;;;;21.20;18.50;;;;;;;;;;5052490;28;20083;-57
2023/07/28 03:04:07;;;;;;;22.17;19.73;;;;;;;;;;5053019;28;20035;-57
2023/07/28 03:06:33;;;;;;;20.45;18.08;;;;;;;;;;5052383;28;20025;-58
2023/07/28 03:09:00;;;;;;;20.58;17.70;;;;;;;;;;5053437;28;20029;-56
2023/07/28 03:11:26;;;;;;;24.30;18.13;;;;;;;;;;5053163;28;20378;-57
2023/07/28 03:13:52;;;;;;;20.98;18.52;;;;;;;;;;5052856;28;20424;-57
2023/07/28 03:16:17;;;;;;;21.35;18.60;;;;;;;;;;5052935;28;20032;-54
2023/07/28 03:18:43;;;;;;;21.83;17.05;;;;;;;;;;5053181;28;20036;-58
2023/07/28 03:21:10;;;;;;;21.10;17.85;;;;;;;;;;5053395;28;20073;-55
2023/07/28 03:23:36;;;;;;;21.83;17.85;;;;;;;;;;5053137;28;20032;-55
2023/07/28 03:26:02;;;;;;;19.90;16.35;;;;;;;;;;5052308;28;20647;-59
2023/07/28 03:28:28;;;;;;;20.25;16.80;;;;;;;;;;5051848;28;20021;-54
2023/07/28 03:30:54;;;;;;;20.90;16.60;;;;;;;;;;5053089;28;20021;-54
2023/07/28 03:33:20;;;;;;;21.17;17.30;;;;;;;;;;5052479;28;20415;-56
2023/07/28 03:35:46;;;;;;;18.88;16.27;;;;;;;;;;5051784;28;20028;-55
2023/07/28 03:38:12;;;;;;;19.85;16.60;;;;;;;;;;5051504;28;20033;-54
2023/07/28 03:40:37;;;;;;;18.45;15.82;;;;;;;;;;5052792;28;20031;-55
2023/07/28 03:43:04;;;;;;;19.52;16.00;;;;;;;;;;5051739;28;20025;-58
2023/07/28 03:45:30;;;;;;;20.33;16.58;;;;;;;;;;5050705;28;20029;-57
2023/07/28 03:47:56;;;;;;;20.35;16.50;;;;;;;;;;5052589;28;20528;-57
2023/07/28 03:50:24;;;;;;;20.08;16.13;;;;;;;;;;5052908;28;20048;-55
2023/07/28 03:52:50;;;;;;;20.80;17.02;;;;;;;;;;5052972;28;20039;-57
2023/07/28 03:55:16;;;;;;;20.33;16.20;;;;;;;;;;5051958;28;20025;-58
2023/07/28 03:57:42;;;;;;;18.85;15.68;;;;;;;;;;5051297;28;20554;-51
2023/07/28 04:00:08;;;;;;;21.80;16.88;;;;;;;;;;4969438;28;20031;-54
2023/07/28 04:02:34;;;;;;;19.90;16.58;;;;;;;;;;4951582;28;20035;-58
2023/07/28 04:05:00;;;;;;;19.90;16.30;;;;;;;;;;4950663;28;20041;-57
2023/07/28 04:07:26;;;;;;;21.05;17.88;;;;;;;;;;4951299;28;20035;-56
2023/07/28 04:09:52;;;;;;;20.90;17.13;;;;;;;;;;4951436;28;20169;-57
2023/07/28 04:12:18;;;;;;;22.38;17.88;;;;;;;;;;4951644;28;20027;-58
2023/07/28 04:14:44;;;;;;;21.02;17.70;;;;;;;;;;4950721;28;20169;-57
2023/07/28 04:17:11;;;;;;;21.35;17.88;;;;;;;;;;4950399;28;20027;-59
2023/07/28 04:19:37;;;;;;;22.15;18.02;;;;;;;;;;4951449;28;20038;-59
2023/07/28 04:22:03;;;;;;;20.50;17.85;;;;;;;;;;4951640;28;20031;-58
2023/07/28 04:24:29;;;;;;;22.00;18.05;;;;;;;;;;4949300;28;20039;-55
2023/07/28 04:26:55;;;;;;;21.45;18.30;;;;;;;;;;4950339;28;20418;-59
2023/07/28 04:29:21;;;;;;;21.98;17.05;;;;;;;;;;4951268;28;20061;-58
2023/07/28 04:31:47;;;;;;;22.98;17.92;;;;;;;;;;4951333;28;20062;-58
2023/07/28 04:34:13;;;;;;;24.23;19.17;;;;;;;;;;4950883;28;20500;-59
2023/07/28 04:36:39;;;;;;;25.55;19.48;;;;;;;;;;4950260;28;20033;-59
2023/07/28 04:39:05;;;;;;;24.42;19.90;;;;;;;;;;4950317;28;20094;-58
2023/07/28 04:41:31;;;;;;;23.05;18.58;;;;;;;;;;4951044;28;20027;-55
2023/07/28 04:43:57;;;;;;;21.50;17.15;;;;;;;;;;4950339;28;20023;-57
2023/07/28 04:46:23;;;;;;;25.05;17.60;;;;;;;;;;4951007;28;20023;-55
2023/07/28 04:48:49;;;;;;;24.73;18.00;;;;;;;;;;4951028;28;20110;-59
2023/07/28 04:51:15;;;;;;;21.80;16.80;;;;;;;;;;4950994;28;20110;-57
2023/07/28 04:53:41;;;;;;;22.77;17.60;;;;;;;;;;4950547;28;20035;-55
2023/07/28 04:56:07;;;;;;;29.17;18.67;;;;;;;;;;4948987;28;20480;-58
2023/07/28 04:58:34;;;;;;;23.73;17.75;;;;;;;;;;4951253;28;20027;-57
2023/07/28 05:01:01;;;;;;;24.55;19.10;;;;;;;;;;4950932;28;20059;-57
2023/07/28 05:03:27;;;;;;;24.45;18.55;;;;;;;;;;4950809;28;20027;-54
2023/07/28 05:05:53;;;;;;;27.08;20.05;;;;;;;;;;4950412;28;20035;-56
2023/07/28 05:08:19;;;;;;;24.30;19.08;;;;;;;;;;4950934;28;20476;-55
2023/07/28 05:10:45;;;;;;;28.80;20.27;;;;;;;;;;4951163;28;20035;-55
2023/07/28 05:13:11;;;;;;;29.65;21.33;;;;;;;;;;4949411;28;20095;-55
2023/07/28 05:15:37;;;;;;;28.70;21.95;;;;;;;;;;4948618;28;20067;-57
2023/07/28 05:18:03;;;;;;;28.20;21.90;;;;;;;;;;4950777;28;20031;-57
2023/07/28 05:20:29;;;;;;;27.88;20.58;;;;;;;;;;4950565;28;20089;-57
2023/07/28 05:22:55;;;;;;;30.88;21.83;;;;;;;;;;4950671;28;20035;-58
2023/07/28 05:25:22;;;;;;;29.55;22.38;;;;;;;;;;4949720;28;20035;-57
2023/07/28 05:27:48;;;;;;;29.27;21.63;;;;;;;;;;4948063;28;20111;-57
2023/07/28 05:30:14;;;;;;;34.05;21.63;;;;;;;;;;4950169;28;20057;-57
2023/07/28 05:32:40;;;;;;;29.25;21.15;;;;;;;;;;4950284;28;20023;-51
2023/07/28 05:35:06;;;;;;;26.83;20.85;;;;;;;;;;4949364;28;20027;-55
2023/07/28 05:37:32;;;;;;;29.15;22.23;;;;;;;;;;4949005;28;20372;-58
2023/07/28 05:39:58;;;;;;;31.77;22.25;;;;;;;;;;4949988;28;20034;-56
2023/07/28 05:42:24;;;;;;;28.80;21.73;;;;;;;;;;4948868;29;20455;-55
2023/07/28 05:44:52;;;;;;;31.02;21.88;;;;;;;;;;4949316;29;20024;-57
2023/07/28 05:47:18;;;;;;;25.53;21.03;;;;;;;;;;4948913;28;20031;-55
2023/07/28 05:49:43;;;;;;;28.23;21.45;;;;;;;;;;4950159;28;20041;-57
2023/07/28 05:52:09;;;;;;;29.48;21.52;;;;;;;;;;4949721;28;20039;-57
2023/07/28 05:54:35;;;;;;;28.63;21.02;;;;;;;;;;4949153;28;20369;-56
2023/07/28 05:57:02;;;;;;;27.13;20.38;;;;;;;;;;4949875;29;20114;-55
2023/07/28 05:59:29;;;;;;;27.85;21.45;;;;;;;;;;4949589;28;20019;-58
2023/07/28 06:01:55;;;;;;;28.70;20.58;;;;;;;;;;4949784;28;20033;-53
2023/07/28 06:04:21;;;;;;;27.30;19.63;;;;;;;;;;4948762;28;20031;-56
2023/07/28 06:06:47;;;;;;;26.10;19.20;;;;;;;;;;4952462;28;20122;-58
2023/07/28 06:09:14;;;;;;;27.13;19.20;;;;;;;;;;4952977;29;20035;-57
2023/07/28 06:11:40;;;;;;;30.13;20.15;;;;;;;;;;4952852;28;20038;-57
2023/07/28 06:14:06;;;;;;;29.10;20.05;;;;;;;;;;4952163;28;20047;-59
2023/07/28 06:16:32;;;;;;;27.83;19.88;;;;;;;;;;4952953;28;20097;-59
2023/07/28 06:18:58;;;;;;;28.55;20.52;;;;;;;;;;4952972;28;20449;-62
2023/07/28 06:21:24;;;;;;;28.63;20.67;;;;;;;;;;4953027;28;20023;-55
2023/07/28 06:23:50;;;;;;;29.42;20.33;;;;;;;;;;4952364;28;20077;-58
2023/07/28 06:26:16;;;;;;;28.02;19.27;;;;;;;;;;4953575;28;20027;-53
2023/07/28 06:28:42;;;;;;;26.90;20.15;;;;;;;;;;4952623;28;20106;-55
2023/07/28 06:31:09;;;;;;;27.83;19.85;;;;;;;;;;4952797;28;20031;-55
2023/07/28 06:33:36;;;;;;;28.95;20.60;;;;;;;;;;4952618;28;20024;-53
2023/07/28 06:36:02;;;;;;;28.50;19.48;;;;;;;;;;4952100;28;20484;-54
2023/07/28 06:38:28;;;;;;;31.13;20.73;;;;;;;;;;4952596;28;20051;-54
2023/07/28 06:40:55;;;;;;;28.83;20.83;;;;;;;;;;4952680;28;20089;-55
2023/07/28 06:43:21;;;;;;;31.83;21.23;;;;;;;;;;4952595;28;20058;-53
2023/07/28 06:45:47;;;;;;;28.95;20.92;;;;;;;;;;4950403;28;20031;-55
2023/07/28 06:48:13;;;;;;;27.85;21.90;;;;;;;;;;4952666;28;20031;-56
2023/07/28 06:50:39;;;;;;;27.20;21.17;;;;;;;;;;4952727;28;20471;-54
2023/07/28 06:53:05;;;;;;;28.35;21.58;;;;;;;;;;4952596;28;20035;-55
2023/07/28 06:55:31;;;;;;;27.05;21.48;;;;;;;;;;4951590;28;20027;-50
2023/07/28 06:57:57;;;;;;;27.40;20.70;;;;;;;;;;4951230;28;20546;-54
2023/07/28 07:00:23;;;;;;;24.48;20.38;;;;;;;;;;4951239;28;20023;-54
2023/07/28 07:02:49;;;;;;;26.63;21.58;;;;;;;;;;4952456;28;20039;-56
2023/07/28 07:05:15;;;;;;;25.65;21.63;;;;;;;;;;4951709;28;20027;-54
2023/07/28 07:07:41;;;;;;;25.65;21.10;;;;;;;;;;4951655;29;20027;-57
2023/07/28 07:10:08;;;;;;;28.05;21.33;;;;;;;;;;4952756;28;20038;-54
2023/07/28 07:12:33;;;;;;;28.15;21.80;;;;;;;;;;4952698;28;20042;-56
2023/07/28 07:14:59;;;;;;;26.92;22.00;;;;;;;;;;4951878;29;20406;-55
2023/07/28 07:17:25;;;;;;;25.90;22.60;;;;;;;;;;4950743;28;20028;-52
2023/07/28 07:19:51;;;;;;;25.33;22.58;;;;;;;;;;4950850;29;20030;-53
2023/07/28 07:22:17;;;;;;;24.05;21.23;;;;;;;;;;4952247;28;20383;-49
2023/07/28 07:24:44;;;;;;;26.58;22.15;;;;;;;;;;4951102;28;20035;-52
2023/07/28 07:27:10;;;;;;;26.10;21.67;;;;;;;;;;4952849;29;20502;-55
2023/07/28 07:29:37;;;;;;;24.50;21.05;;;;;;;;;;4968424;28;20077;-56
2023/07/28 07:32:03;;;;;;;25.65;21.63;;;;;;;;;;4972717;28;20078;-58
2023/07/28 07:34:29;;;;;;;25.88;21.27;;;;;;;;;;4971097;28;20059;-56
2023/07/28 07:36:57;;;;;;;27.98;22.90;;;;;;;;;;4972733;28;20081;-56
2023/07/28 07:39:23;;;;;;;27.67;22.38;;;;;;;;;;4970383;28;20023;-63
2023/07/28 07:41:49;;;;;;;25.70;22.63;;;;;;;;;;4972125;28;20101;-58
2023/07/28 07:44:15;;;;;;;24.45;21.85;;;;;;;;;;4970031;28;20023;-57
2023/07/28 07:46:41;;;;;;;26.17;22.00;;;;;;;;;;4972044;28;20053;-53
2023/07/28 07:49:07;;;;;;;26.50;21.40;;;;;;;;;;4971936;28;20022;-57
2023/07/28 07:51:34;;;;;;;24.92;20.75;;;;;;;;;;4970758;28;20023;-55
2023/07/28 07:54:01;;;;;;;25.63;20.88;;;;;;;;;;4971087;28;20026;-56
2023/07/28 07:56:27;;;;;;;25.00;18.70;;;;;;;;;;4970476;28;20023;-52
2023/07/28 07:58:53;;;;;;;26.27;18.65;;;;;;;;;;4971901;28;20094;-53
2023/07/28 08:01:19;;;;;;;25.08;17.63;;;;;;;;;;4971797;28;20043;-51
2023/07/28 08:03:45;;;;;;;23.77;17.17;;;;;;;;;;4971049;28;20556;-54
2023/07/28 08:06:12;;;;;;;24.02;16.35;;;;;;;;;;4970330;28;20027;-53
2023/07/28 08:08:38;;;;;;;24.42;16.30;;;;;;;;;;4971069;28;20026;-54
2023/07/28 08:11:04;;;;;;;22.40;14.77;;;;;;;;;;4970841;28;20035;-51
2023/07/28 08:13:30;;;;;;;23.15;17.25;;;;;;;;;;4970709;28;20031;-57
2023/07/28 08:15:57;;;;;;;23.35;16.77;;;;;;;;;;4968624;28;20152;-56
2023/07/28 08:18:23;;;;;;;24.33;17.15;;;;;;;;;;4970754;28;20053;-57
2023/07/28 08:20:49;;;;;;;23.00;16.75;;;;;;;;;;4970699;28;20023;-54
2023/07/28 08:23:15;;;;;;;24.00;17.40;;;;;;;;;;4970060;28;20147;-55
2023/07/28 08:25:41;;;;;;;26.15;18.00;;;;;;;;;;4969532;28;20070;-52
2023/07/28 08:28:07;;;;;;;24.90;17.60;;;;;;;;;;4964904;28;20165;-56
2023/07/28 08:30:33;;;;;;;27.98;19.10;;;;;;;;;;4951357;28;20053;-59
2023/07/28 08:32:59;;;;;;;24.40;16.10;;;;;;;;;;4950971;28;20062;-57
2023/07/28 08:35:25;;;;;;;26.38;17.15;;;;;;;;;;4950170;28;20023;-59
2023/07/28 08:37:51;;;;;;;23.75;14.70;;;;;;;;;;4947703;28;20030;-58
2023/07/28 08:40:17;;;;;;;24.52;15.35;;;;;;;;;;4943116;29;20399;-59
2023/07/28 08:42:44;;;;;;;25.35;15.30;;;;;;;;;;4948450;28;20376;-57
2023/07/28 08:45:10;;;;;;;28.08;16.80;;;;;;;;;;4948944;28;20040;-55
2023/07/28 08:47:37;;;;;;;24.48;14.50;;;;;;;;;;4949958;28;20031;-56
2023/07/28 08:50:03;;;;;;;24.00;15.55;;;;;;;;;;4950026;28;20468;-55
2023/07/28 08:52:29;;;;;;;23.90;15.80;;;;;;;;;;4950957;28;20031;-57
2023/07/28 08:54:55;;;;;;;24.65;15.68;;;;;;;;;;4950066;28;20034;-57
2023/07/28 08:57:21;;;;;;;26.75;16.55;;;;;;;;;;4950841;28;20023;-53
2023/07/28 08:59:47;;;;;;;22.77;14.35;;;;;;;;;;4950731;28;20019;-56
2023/07/28 09:02:17;;;;;;;23.33;14.90;;;;;;;;;;4951122;28;20047;-57
2023/07/28 09:04:44;;;;;;;25.83;16.08;;;;;;;;;;4950188;28;20097;-54
2023/07/28 09:07:10;;;;;;;21.00;13.98;;;;;;;;;;4950653;28;20467;-53
2023/07/28 09:09:40;;;;;;;22.00;13.70;;;;;;;;;;4950498;28;20031;-56
2023/07/28 09:12:07;;;;;;;20.60;13.07;;;;;;;;;;4950662;28;20034;-57
2023/07/28 09:14:35;;;;;;;21.58;13.10;;;;;;;;;;4981385;28;20039;-55
2023/07/28 09:17:11;;;;;;;18.92;11.43;;;;;;;;;;4950481;28;20022;-55
2023/07/28 09:19:56;;;;;;;19.60;12.85;;;;;;;;;;4950626;28;20027;-56
2023/07/28 09:22:22;;;;;;;22.30;13.80;;;;;;;;;;4950437;28;20541;-51
2023/07/28 09:24:49;;;;;;;21.70;13.32;;;;;;;;;;4949598;28;20070;-56
2023/07/28 09:27:22;;;;;;;19.33;12.63;;;;;;;;;;4950520;28;20097;-56
2023/07/28 09:29:49;;;;;;;20.80;13.35;;;;;;;;;;4950252;28;20028;-52
2023/07/28 09:32:15;;;;;;;19.67;12.80;;;;;;;;;;4950151;28;20032;-57
2023/07/28 09:34:41;;;;;;;20.17;12.45;;;;;;;;;;4947782;28;20027;-58
2023/07/28 09:37:10;;;;;;;21.42;13.68;;;;;;;;;;4950193;28;20034;-58
2023/07/28 09:39:37;;;;;;;20.88;13.27;;;;;;;;;;4950104;28;20023;-58
2023/07/28 09:42:04;;;;;;;19.27;12.57;;;;;;;;;;4953520;28;20035;-53
2023/07/28 09:44:30;;;;;;;21.80;13.23;;;;;;;;;;4951325;28;20491;-52
2023/07/28 09:46:57;;;;;;;20.80;12.77;;;;;;;;;;4953530;28;20110;-53
2023/07/28 09:49:34;;;;;;;24.38;14.43;;;;;;;;;;4952174;28;20487;-53
2023/07/28 09:52:04;;;;;;;21.10;13.68;;;;;;;;;;4951962;28;20027;-54
2023/07/28 09:54:31;;;;;;;27.67;14.02;;;;;;;;;;4952670;28;20023;-52
2023/07/28 09:56:58;;;;;;;22.42;14.15;;;;;;;;;;4951756;28;20121;-53
2023/07/28 09:59:29;;;;;;;21.25;13.68;;;;;;;;;;4948035;28;20157;-51
2023/07/28 10:01:57;;;;;;;20.48;13.55;;;;;;;;;;4948255;29;20092;-55
2023/07/28 10:04:23;;;;;;;22.85;15.07;;;;;;;;;;4948914;28;20030;-56
2023/07/28 10:06:49;;;;;;;20.85;13.70;;;;;;;;;;4951493;29;20429;-56
2023/07/28 10:09:16;;;;;;;21.88;14.93;;;;;;;;;;4952533;28;20364;-57
2023/07/28 10:11:43;;;;;;;20.80;13.80;;;;;;;;;;4952403;28;20019;-57
2023/07/28 10:14:10;;;;;;;22.52;14.20;;;;;;;;;;4950431;28;20313;-55
2023/07/28 10:16:39;;;;;;;20.35;13.25;;;;;;;;;;4951711;28;20085;-58
2023/07/28 10:19:05;;;;;;;25.65;15.30;;;;;;;;;;4951293;28;20038;-58
2023/07/28 10:21:32;;;;;;;26.80;15.48;;;;;;;;;;4951020;28;20038;-57
2023/07/28 10:23:58;;;;;;;24.58;15.05;;;;;;;;;;4950406;28;20160;-56
2023/07/28 10:26:44;;;;;;;24.88;15.65;;;;;;;;;;4951659;28;20599;-57
2023/07/28 10:29:14;;;;;;;25.42;16.23;;;;;;;;;;4952594;28;20039;-58
2023/07/28 10:31:50;;;;;;;21.92;15.13;;;;;;;;;;4952589;28;20031;-55
2023/07/28 10:34:17;;;;;;;22.30;15.48;;;;;;;;;;4950612;28;20514;-52
2023/07/28 10:36:45;;;;;;;23.48;17.50;;;;;;;;;;4952795;28;20031;-55
2023/07/28 10:39:17;;;;;;;21.02;14.55;;;;;;;;;;4951477;28;20117;-56
2023/07/28 10:42:03;;;;;;;24.30;16.23;;;;;;;;;;4952709;28;20361;-57
2023/07/28 10:44:29;;;;;;;21.65;15.07;;;;;;;;;;4952062;28;20039;-54
2023/07/28 10:46:55;;;;;;;22.48;15.43;;;;;;;;;;4952993;28;20118;-54
2023/07/28 10:49:21;;;;;;;22.20;14.68;;;;;;;;;;4952804;28;20028;-57
2023/07/28 10:51:47;;;;;;;23.30;14.90;;;;;;;;;;4951875;28;20073;-56
2023/07/28 10:54:16;;;;;;;23.48;15.55;;;;;;;;;;4951437;28;20020;-52
2023/07/28 10:56:43;;;;;;;23.15;15.57;;;;;;;;;;4952320;28;20037;-55
2023/07/28 10:59:10;;;;;;;22.30;15.77;;;;;;;;;;4952571;28;20057;-57
2023/07/28 11:01:40;;;;;;;26.27;16.35;;;;;;;;;;4952486;28;20066;-57
2023/07/28 11:04:10;;;;;;;26.65;16.55;;;;;;;;;;4951824;28;20058;-55
2023/07/28 11:06:38;;;;;;;24.05;15.82;;;;;;;;;;4952538;28;20031;-57
2023/07/28 11:09:06;;;;;;;23.10;15.63;;;;;;;;;;4952493;28;20391;-54
2023/07/28 11:11:32;;;;;;;23.13;16.20;;;;;;;;;;4952556;28;20035;-57
2023/07/28 11:13:59;;;;;;;23.63;15.65;;;;;;;;;;4951572;28;20147;-58
2023/07/28 11:16:25;;;;;;;23.30;14.27;;;;;;;;;;4952030;28;20116;-56
2023/07/28 11:18:51;;;;;;;23.50;15.43;;;;;;;;;;4951884;28;20110;-53
2023/07/28 11:21:18;;;;;;;23.98;15.77;;;;;;;;;;4952080;28;20081;-52
2023/07/28 11:23:45;;;;;;;22.00;15.20;;;;;;;;;;4951628;28;20041;-55
2023/07/28 11:26:11;;;;;;;24.17;15.38;;;;;;;;;;4951337;28;20039;-54
2023/07/28 11:28:38;;;;;;;20.10;13.10;;;;;;;;;;4952013;28;20028;-57
2023/07/28 11:31:04;;;;;;;22.00;14.88;;;;;;;;;;4945416;28;20027;-56
2023/07/28 11:33:31;;;;;;;21.45;14.85;;;;;;;;;;4951279;29;20051;-57
2023/07/28 11:35:57;;;;;;;21.40;13.95;;;;;;;;;;4950265;28;20031;-54
2023/07/28 11:38:23;;;;;;;21.77;15.35;;;;;;;;;;4951486;28;20077;-57
2023/07/28 11:40:50;;;;;;;22.77;16.20;;;;;;;;;;4951548;28;20066;-57
2023/07/28 11:43:16;;;;;;;24.13;15.23;;;;;;;;;;4950166;28;20038;-54
2023/07/28 11:45:42;;;;;;;24.42;15.68;;;;;;;;;;4950697;28;20092;-54
2023/07/28 11:48:08;;;;;;;20.88;14.82;;;;;;;;;;4951575;28;20487;-54
2023/07/28 11:50:39;;;;;;;20.40;15.25;;;;;;;;;;4951574;28;20027;-58
2023/07/28 11:53:06;;;;;;;20.13;14.05;;;;;;;;;;4951355;28;20054;-57
2023/07/28 11:55:32;;;;;;;21.38;15.50;;;;;;;;;;4950489;28;20050;-53
2023/07/28 11:57:58;;;;;;;20.92;14.98;;;;;;;;;;4951412;28;20050;-55
2023/07/28 12:00:34;;;;;;;24.33;14.88;;;;;;;;;;4951046;28;20031;-56
2023/07/28 12:03:04;;;;;;;20.02;15.07;;;;;;;;;;4950724;28;20050;-59
2023/07/28 12:05:30;;;;;;;20.55;15.60;;;;;;;;;;4950343;28;20077;-55
2023/07/28 12:07:56;;;;;;;22.15;15.73;;;;;;;;;;4951119;28;20110;-56
2023/07/28 12:10:24;;;;;;;20.15;14.00;;;;;;;;;;4950903;28;20102;-55
2023/07/28 12:12:50;;;;;;;19.80;14.35;;;;;;;;;;4950852;28;20034;-58
2023/07/28 12:15:20;;;;;;;20.33;13.60;;;;;;;;;;4948537;28;20061;-57
2023/07/28 12:18:04;;;;;;;20.40;14.70;;;;;;;;;;4949459;28;20027;-54
2023/07/28 12:20:37;;;;;;;19.33;14.60;;;;;;;;;;4949574;28;20027;-55
2023/07/28 12:23:03;;;;;;;18.63;13.63;;;;;;;;;;4950865;28;20034;-56
2023/07/28 12:25:29;;;;;;;18.42;13.85;;;;;;;;;;4972447;22;20073;-50
2023/07/28 12:27:55;;;;;;;23.30;14.50;;;;;;;;;;4968910;28;20052;-51
2023/07/28 12:30:22;;;;;;;19.23;14.18;;;;;;;;;;4968713;28;20026;-51
2023/07/28 12:32:48;;;;;;;19.42;13.80;;;;;;;;;;4968493;28;20529;-54
2023/07/28 12:35:14;;;;;;;19.48;13.82;;;;;;;;;;4966870;28;20144;-53
2023/07/28 12:37:40;;;;;;;18.67;12.27;;;;;;;;;;4969007;28;20027;-50
2023/07/28 12:40:06;;;;;;;17.58;12.88;;;;;;;;;;4969329;28;20087;-50
2023/07/28 12:42:33;;;;;;;19.52;13.18;;;;;;;;;;4967347;28;20039;-52
2023/07/28 12:44:59;;;;;;;18.67;13.50;;;;;;;;;;4968305;28;20084;-50
2023/07/28 12:47:25;;;;;;;18.38;13.55;;;;;;;;;;4968956;28;20034;-49
2023/07/28 12:49:51;;;;;;;18.55;12.40;;;;;;;;;;4968999;28;20023;-54
2023/07/28 12:52:17;;;;;;;17.08;11.93;;;;;;;;;;4969121;28;20029;-51
2023/07/28 12:54:43;;;;;;;20.00;11.70;;;;;;;;;;4968400;28;20031;-50
2023/07/28 12:57:12;;;;;;;16.60;11.73;;;;;;;;;;4968016;28;20391;-53
2023/07/28 12:59:38;;;;;;;16.20;10.93;;;;;;;;;;4967558;28;20103;-54
2023/07/28 13:02:04;;;;;;;16.13;11.23;;;;;;;;;;4968621;28;20168;-54
2023/07/28 13:04:30;;;;;;;16.25;11.60;;;;;;;;;;4967592;28;20030;-55
2023/07/28 13:06:56;;;;;;;16.02;11.93;;;;;;;;;;4967552;28;20042;-58
2023/07/28 13:09:22;;;;;;;15.65;10.77;;;;;;;;;;4968445;28;20139;-54
2023/07/28 13:11:48;;;;;;;16.27;11.23;;;;;;;;;;4968352;28;20085;-52
2023/07/28 13:14:14;;;;;;;16.80;11.23;;;;;;;;;;4969072;28;20445;-51
2023/07/28 13:16:40;;;;;;;15.80;10.50;;;;;;;;;;4974947;28;20030;-53
2023/07/28 13:19:06;;;;;;;16.33;10.40;;;;;;;;;;4974913;28;20023;-51
2023/07/28 13:21:33;;;;;;;15.80;10.98;;;;;;;;;;4975120;28;20031;-55
2023/07/28 13:23:59;;;;;;;16.13;11.15;;;;;;;;;;4974712;28;20072;-55
2023/07/28 13:26:25;;;;;;;16.10;11.02;;;;;;;;;;4975395;28;20043;-57
2023/07/28 13:28:51;;;;;;;17.90;11.55;;;;;;;;;;4977058;28;20084;-54
2023/07/28 13:31:18;;;;;;;15.80;11.00;;;;;;;;;;4977171;28;20422;-53
2023/07/28 13:33:44;;;;;;;17.20;11.32;;;;;;;;;;4976686;28;20437;-53
2023/07/28 13:36:10;;;;;;;16.88;11.95;;;;;;;;;;4977494;28;20035;-57
2023/07/28 13:38:36;;;;;;;16.08;10.82;;;;;;;;;;4977543;28;20540;-54
2023/07/28 13:41:05;;;;;;;17.00;11.40;;;;;;;;;;4976112;28;20035;-53
2023/07/28 13:43:31;;;;;;;17.15;11.07;;;;;;;;;;4974567;28;20061;-53
2023/07/28 13:45:57;;;;;;;15.68;10.40;;;;;;;;;;4972286;28;20035;-53
2023/07/28 13:48:24;;;;;;;15.27;10.05;;;;;;;;;;4973972;28;20054;-53
2023/07/28 13:50:50;;;;;;;15.50;10.18;;;;;;;;;;4958819;28;20027;-53
2023/07/28 13:53:16;;;;;;;15.23;9.82;;;;;;;;;;4956149;28;20066;-53
2023/07/28 13:55:42;;;;;;;15.23;9.70;;;;;;;;;;4955171;28;20034;-54
2023/07/28 13:58:08;;;;;;;15.38;10.00;;;;;;;;;;4955924;28;20565;-56
2023/07/28 14:00:34;;;;;;;14.40;9.48;;;;;;;;;;4955960;28;20043;-56
2023/07/28 14:03:00;;;;;;;14.60;9.60;;;;;;;;;;4956104;28;20031;-57
2023/07/28 14:05:26;;;;;;;14.93;10.23;;;;;;;;;;4954164;28;20038;-56
2023/07/28 14:07:52;;;;;;;15.38;10.07;;;;;;;;;;4956130;28;20457;-58
2023/07/28 14:10:18;;;;;;;14.60;10.10;;;;;;;;;;4954949;28;20031;-60
2023/07/28 14:12:44;;;;;;;15.02;10.20;;;;;;;;;;4955901;28;20058;-61